createdAt,value
2018-04-09T00:00:43.960Z,23.6
2018-04-09T00:10:43.365Z,23.6
2018-04-09T00:20:42.573Z,23.6
2018-04-09T00:30:41.788Z,23.6
2018-04-09T00:40:40.668Z,23.6
2018-04-09T00:50:39.932Z,23.6
2018-04-09T01:00:39.054Z,23.7
2018-04-09T01:10:38.341Z,23.7
2018-04-09T01:20:37.752Z,23.7
2018-04-09T01:30:36.845Z,23.7
2018-04-09T01:40:36.197Z,23.7
2018-04-09T01:50:35.471Z,23.7
2018-04-09T02:00:34.390Z,23.7
2018-04-09T02:10:33.521Z,23.7
2018-04-09T02:20:32.804Z,23.7
2018-04-09T02:30:32.053Z,23.7
2018-04-09T02:40:31.200Z,23.7
2018-04-09T02:50:30.516Z,23.7
2018-04-09T03:00:29.568Z,23.7
2018-04-09T03:10:29.441Z,23.6
2018-04-09T03:20:28.091Z,23.6
2018-04-09T03:30:27.284Z,23.7
2018-04-09T03:40:26.804Z,23.7
2018-04-09T03:50:25.605Z,23.7
2018-04-09T04:00:24.857Z,23.6
2018-04-09T04:10:24.175Z,23.6
2018-04-09T04:20:23.249Z,23.6
2018-04-09T04:30:22.711Z,23.7
2018-04-09T04:40:21.711Z,23.7
2018-04-09T04:50:20.860Z,23.7
2018-04-09T05:00:20.338Z,23.8
2018-04-09T05:10:19.588Z,23.9
2018-04-09T05:20:19.108Z,24.1
2018-04-09T05:30:17.765Z,24.2
2018-04-09T05:40:16.973Z,24.3
2018-04-09T05:50:16.720Z,24.4
2018-04-09T06:00:15.312Z,24.5
2018-04-09T06:10:14.805Z,24.6
2018-04-09T06:20:13.805Z,24.7
2018-04-09T06:30:13.051Z,24.8
2018-04-09T06:40:12.442Z,25
2018-04-09T06:50:11.781Z,25.2
2018-04-09T07:00:10.560Z,25.3
2018-04-09T07:10:10.419Z,25.4
2018-04-09T07:20:09.359Z,25.5
2018-04-09T07:30:08.188Z,25.6
2018-04-09T07:40:07.594Z,25.7
2018-04-09T07:50:06.907Z,25.8
2018-04-09T08:00:05.974Z,25.8
2018-04-09T08:10:05.028Z,25.9
2018-04-09T08:20:04.266Z,26
2018-04-09T08:30:03.804Z,26.1
2018-04-09T08:40:03.028Z,26.1
2018-04-09T08:50:01.887Z,26.1
2018-04-09T09:00:01.354Z,26.1
2018-04-09T09:10:00.644Z,26.1
2018-04-09T09:19:59.774Z,26.1
2018-04-09T09:29:58.798Z,26.1
2018-04-09T09:39:58.043Z,26.1
2018-04-09T09:49:57.425Z,26.1
2018-04-09T09:59:56.463Z,26
2018-04-09T10:09:55.565Z,26
2018-04-09T10:19:55.060Z,25.9
2018-04-09T10:29:53.990Z,26
2018-04-09T10:39:53.233Z,25.9
2018-04-09T10:49:52.463Z,25.9
2018-04-09T10:59:51.837Z,25.9
2018-04-09T11:09:51.085Z,25.9
2018-04-09T11:19:50.423Z,25.8
2018-04-09T11:29:49.339Z,25.8
2018-04-09T11:39:48.519Z,25.8
2018-04-09T11:49:47.774Z,25.7
2018-04-09T11:59:47.236Z,25.7
2018-04-09T12:09:46.300Z,25.6
2018-04-09T12:19:45.693Z,25.6
2018-04-09T12:29:44.694Z,25.6
2018-04-09T12:39:43.761Z,25.6
2018-04-09T12:49:43.269Z,25.5
2018-04-09T12:59:42.124Z,25.5
2018-04-09T13:09:41.477Z,25.4
2018-04-09T13:19:40.840Z,25.5
2018-04-09T13:29:39.889Z,25.4
2018-04-09T13:39:38.984Z,25.4
2018-04-09T13:49:38.599Z,25.4
2018-04-09T13:59:37.502Z,25.4
2018-04-09T14:09:36.584Z,25.4
2018-04-09T14:19:35.796Z,25.2
2018-04-09T15:00:20.102Z,24.8
2018-04-09T15:10:19.298Z,24.8
2018-04-09T15:20:18.504Z,24.7
2018-04-09T15:30:17.755Z,24.6
2018-04-09T15:40:16.919Z,24.6
2018-04-09T15:50:16.576Z,24.5
2018-04-09T16:00:15.667Z,24.5
2018-04-09T16:10:14.595Z,24.4
2018-04-09T16:20:13.801Z,24.4
2018-04-09T16:30:13.410Z,24.4
2018-04-09T16:40:12.505Z,24.4
2018-04-09T16:50:11.490Z,24.4
2018-04-09T17:00:10.956Z,24.3
2018-04-09T17:10:10.218Z,24.2
2018-04-09T17:20:09.360Z,24.1
2018-04-09T17:30:08.631Z,24.1
2018-04-09T17:40:07.523Z,24.1
2018-04-09T17:50:06.765Z,23.9
2018-04-09T18:00:05.934Z,23.9
2018-04-09T18:10:05.170Z,23.8
2018-04-09T18:20:04.369Z,23.8
2018-04-09T18:30:04.146Z,23.8
2018-04-09T18:40:03.098Z,23.8
2018-04-09T18:50:02.319Z,23.8
2018-04-09T19:00:01.504Z,23.8
2018-04-09T19:10:00.435Z,23.8
2018-04-09T19:19:59.924Z,23.9
2018-04-09T19:29:59.155Z,24
2018-04-09T19:39:58.102Z,23.9
2018-04-09T19:49:57.589Z,23.9
2018-04-09T19:59:56.507Z,23.8
2018-04-09T20:09:55.990Z,23.8
2018-04-09T20:19:55.230Z,23.9
2018-04-09T20:29:54.138Z,23.9
2018-04-09T20:39:53.353Z,23.9
2018-04-09T20:49:52.588Z,24
2018-04-09T20:59:51.809Z,24.1
2018-04-09T21:09:50.981Z,24.1
2018-04-09T21:19:50.308Z,24.1
2018-04-09T21:29:49.684Z,24.1
2018-04-09T21:39:48.644Z,24.1
2018-04-09T21:49:47.906Z,24.2
2018-04-09T21:59:47.320Z,24.2
2018-04-09T22:09:46.247Z,24.2
2018-04-09T22:19:45.467Z,24.2
2018-04-09T22:29:44.959Z,24.2
2018-04-09T22:39:44.270Z,24.1
2018-04-09T22:49:43.367Z,24.2
2018-04-09T22:59:42.302Z,24.1
2018-04-09T23:09:41.513Z,24.2
2018-04-09T23:19:41.119Z,24.2
2018-04-09T23:29:39.930Z,24.3
2018-04-09T23:39:39.154Z,24.3
2018-04-09T23:49:38.442Z,24.3
2018-04-09T23:59:37.845Z,24.3
